Time;durP1;ratioP1;P1;durP2;ratioP2;P2;SDS_P1;SDS_P2;PMS_P1;PMS_P2;Temp;Humidity;BMP_temperature;BMP_pressure;BME280_temperature;BME280_humidity;BME280_pressure;Samples;Min_cycle;Max_cycle;Signal;HPM_P1;HPM_P2
2021/12/28 00:01:26;;;;;;;31.17;19.70;;;;;;;;;;5066445;28;20248;-77
2021/12/28 00:03:57;;;;;;;26.30;17.67;;;;;;;;;;5081044;28;20222;-76
2021/12/28 00:06:22;;;;;;;26.73;18.60;;;;;;;;;;5044195;28;20243;-78
2021/12/28 00:08:53;;;;;;;25.60;18.73;;;;;;;;;;5062593;28;20235;-77
2021/12/28 00:11:23;;;;;;;28.83;18.23;;;;;;;;;;5032019;28;20274;-77
2021/12/28 00:13:54;;;;;;;32.40;19.73;;;;;;;;;;5049153;28;20223;-77
2021/12/28 00:16:31;;;;;;;28.97;19.13;;;;;;;;;;5043362;28;20216;-77
2021/12/28 00:18:57;;;;;;;26.73;18.43;;;;;;;;;;5045465;28;20309;-77
2021/12/28 00:21:25;;;;;;;28.60;18.70;;;;;;;;;;5051785;28;20774;-77
2021/12/28 00:23:51;;;;;;;26.20;18.43;;;;;;;;;;5086578;28;20222;-77
2021/12/28 00:26:17;;;;;;;27.37;18.73;;;;;;;;;;5066448;28;20290;-77
2021/12/28 00:28:43;;;;;;;28.70;18.73;;;;;;;;;;5045115;28;20727;-77
2021/12/28 00:31:15;;;;;;;28.43;18.90;;;;;;;;;;5045302;28;20220;-77
2021/12/28 00:33:45;;;;;;;28.50;17.60;;;;;;;;;;5046902;28;20310;-77
2021/12/28 00:36:10;;;;;;;27.07;18.80;;;;;;;;;;5030816;28;20262;-77
2021/12/28 00:38:38;;;;;;;28.07;19.63;;;;;;;;;;5067532;28;20261;-77
2021/12/28 00:41:06;;;;;;;27.30;19.33;;;;;;;;;;5050504;28;20318;-77
2021/12/28 00:43:32;;;;;;;28.30;18.53;;;;;;;;;;5049723;28;20241;-78
2021/12/28 00:46:03;;;;;;;26.07;18.67;;;;;;;;;;5066230;28;20234;-77
2021/12/28 00:48:31;;;;;;;24.70;17.43;;;;;;;;;;5062994;28;20225;-77
2021/12/28 00:50:57;;;;;;;29.47;19.87;;;;;;;;;;5067678;28;20230;-77
2021/12/28 00:53:23;;;;;;;27.10;19.47;;;;;;;;;;5051313;28;20987;-76
2021/12/28 00:55:51;;;;;;;30.10;20.30;;;;;;;;;;5048824;28;20223;-77
2021/12/28 00:58:17;;;;;;;30.70;19.97;;;;;;;;;;5081022;28;20765;-77
2021/12/28 01:00:45;;;;;;;27.90;18.63;;;;;;;;;;5050513;28;20226;-77
2021/12/28 01:03:13;;;;;;;32.30;20.10;;;;;;;;;;5053368;28;20642;-77
2021/12/28 01:05:39;;;;;;;27.83;19.63;;;;;;;;;;5063392;28;20219;-77
2021/12/28 01:08:05;;;;;;;30.97;19.83;;;;;;;;;;5072307;28;20223;-77
2021/12/28 01:10:38;;;;;;;29.30;19.60;;;;;;;;;;5082650;28;20229;-77
2021/12/28 01:13:04;;;;;;;28.80;20.47;;;;;;;;;;5054341;28;20740;-77
2021/12/28 01:15:30;;;;;;;27.90;19.47;;;;;;;;;;5011678;28;20280;-77
2021/12/28 01:17:55;;;;;;;31.73;20.43;;;;;;;;;;5019084;28;20234;-76
2021/12/28 01:20:21;;;;;;;28.77;19.80;;;;;;;;;;5062405;28;20683;-76
2021/12/28 01:22:50;;;;;;;31.97;20.30;;;;;;;;;;5073011;28;20766;-77
2021/12/28 01:25:16;;;;;;;33.93;21.33;;;;;;;;;;5025661;28;20314;-76
2021/12/28 01:27:44;;;;;;;30.60;21.53;;;;;;;;;;5064720;28;20233;-77
2021/12/28 01:30:15;;;;;;;30.97;20.63;;;;;;;;;;5044921;28;20234;-77
2021/12/28 01:32:40;;;;;;;28.23;19.73;;;;;;;;;;5040891;28;20228;-76
2021/12/28 01:35:09;;;;;;;30.07;21.27;;;;;;;;;;5058462;28;20234;-76
2021/12/28 01:37:35;;;;;;;32.07;20.57;;;;;;;;;;5028047;28;20247;-77
2021/12/28 01:40:03;;;;;;;33.57;21.63;;;;;;;;;;5061906;28;20297;-77
2021/12/28 01:42:29;;;;;;;32.47;21.70;;;;;;;;;;5026767;28;20317;-76
2021/12/28 01:44:55;;;;;;;34.00;20.53;;;;;;;;;;5008958;28;20712;-77
2021/12/28 01:47:20;;;;;;;32.10;20.33;;;;;;;;;;5023579;28;20231;-76
2021/12/28 01:49:48;;;;;;;32.57;21.37;;;;;;;;;;5028067;28;20282;-77
2021/12/28 01:52:14;;;;;;;34.37;21.17;;;;;;;;;;5043796;28;20258;-77
2021/12/28 01:54:44;;;;;;;33.60;21.83;;;;;;;;;;5026790;28;20696;-76
2021/12/28 01:57:10;;;;;;;31.10;21.40;;;;;;;;;;5024453;28;20231;-76
2021/12/28 01:59:37;;;;;;;32.43;21.20;;;;;;;;;;5025923;28;20219;-75
2021/12/28 02:02:03;;;;;;;31.23;20.90;;;;;;;;;;5043265;28;20711;-75
2021/12/28 02:04:31;;;;;;;33.57;20.60;;;;;;;;;;5029263;28;20230;-76
2021/12/28 02:07:02;;;;;;;31.73;20.97;;;;;;;;;;5024713;28;20582;-77
2021/12/28 02:09:32;;;;;;;32.23;21.23;;;;;;;;;;5055798;28;20585;-76
2021/12/28 02:12:01;;;;;;;30.10;20.10;;;;;;;;;;5079792;28;20258;-76
2021/12/28 02:14:29;;;;;;;30.80;20.40;;;;;;;;;;5032075;28;20305;-76
2021/12/28 02:16:57;;;;;;;30.83;21.00;;;;;;;;;;5009488;28;20613;-76
2021/12/28 02:19:27;;;;;;;32.07;20.93;;;;;;;;;;5036441;28;20295;-76
2021/12/28 02:21:55;;;;;;;31.47;20.40;;;;;;;;;;5031072;28;20218;-76
2021/12/28 02:24:20;;;;;;;32.30;20.30;;;;;;;;;;5034938;28;20230;-76
2021/12/28 02:26:46;;;;;;;32.13;21.17;;;;;;;;;;5042348;28;20318;-76
2021/12/28 02:29:12;;;;;;;32.30;20.87;;;;;;;;;;5050180;28;20761;-75
2021/12/28 02:31:40;;;;;;;31.93;21.60;;;;;;;;;;5061760;28;20226;-76
2021/12/28 02:34:05;;;;;;;28.93;20.90;;;;;;;;;;5054149;28;20220;-77
2021/12/28 02:36:31;;;;;;;29.90;19.63;;;;;;;;;;5042383;28;20577;-77
2021/12/28 02:38:59;;;;;;;26.93;19.97;;;;;;;;;;5047406;28;20222;-77
2021/12/28 02:41:27;;;;;;;29.73;19.80;;;;;;;;;;5044462;28;20226;-76
2021/12/28 02:44:00;;;;;;;30.80;19.87;;;;;;;;;;5025963;28;20211;-75
2021/12/28 02:46:30;;;;;;;33.83;20.47;;;;;;;;;;5009987;28;20223;-75
2021/12/28 02:49:00;;;;;;;31.93;20.50;;;;;;;;;;5040744;28;20319;-77
2021/12/28 02:51:26;;;;;;;31.77;20.30;;;;;;;;;;5023175;28;20235;-76
2021/12/28 02:53:58;;;;;;;26.87;19.03;;;;;;;;;;5038676;28;20234;-76
2021/12/28 02:56:24;;;;;;;32.73;20.93;;;;;;;;;;5077321;28;20226;-77
2021/12/28 02:58:51;;;;;;;33.40;21.33;;;;;;;;;;5044747;28;20250;-76
2021/12/28 03:01:24;;;;;;;28.90;19.53;;;;;;;;;;5024693;28;20272;-75
2021/12/28 03:03:54;;;;;;;30.00;20.23;;;;;;;;;;5042369;28;20283;-76
2021/12/28 03:06:21;;;;;;;31.63;20.03;;;;;;;;;;5077394;28;20231;-76
2021/12/28 03:08:49;;;;;;;31.23;19.17;;;;;;;;;;5043254;28;21050;-75
2021/12/28 03:11:19;;;;;;;33.10;20.60;;;;;;;;;;5025368;28;20223;-76
2021/12/28 03:13:49;;;;;;;30.33;20.57;;;;;;;;;;5039993;28;20285;-75
2021/12/28 03:16:17;;;;;;;30.23;20.83;;;;;;;;;;5007785;28;20223;-77
2021/12/28 03:18:43;;;;;;;31.60;20.33;;;;;;;;;;5024557;28;20223;-75
2021/12/28 03:21:11;;;;;;;29.63;20.23;;;;;;;;;;5027915;28;20211;-75
2021/12/28 03:23:37;;;;;;;33.20;20.67;;;;;;;;;;5061179;28;20219;-75
2021/12/28 03:26:03;;;;;;;30.80;19.73;;;;;;;;;;5011393;28;20226;-76
2021/12/28 03:28:30;;;;;;;28.73;19.13;;;;;;;;;;5041142;28;20652;-75
2021/12/28 03:31:00;;;;;;;32.60;20.13;;;;;;;;;;5024413;28;20226;-76
2021/12/28 03:33:27;;;;;;;33.23;20.73;;;;;;;;;;5060835;28;20234;-77
2021/12/28 03:35:55;;;;;;;38.87;21.63;;;;;;;;;;5077702;28;20479;-78
2021/12/28 03:38:23;;;;;;;29.93;20.63;;;;;;;;;;5061057;28;20227;-78
2021/12/28 03:40:49;;;;;;;32.73;21.83;;;;;;;;;;5009248;28;20302;-79
2021/12/28 03:43:17;;;;;;;36.77;22.37;;;;;;;;;;5041788;28;20228;-77
2021/12/28 03:45:43;;;;;;;33.10;20.97;;;;;;;;;;5008764;28;20241;-77
2021/12/28 03:48:08;;;;;;;32.07;20.43;;;;;;;;;;5057846;28;20227;-76
2021/12/28 03:50:36;;;;;;;34.20;21.50;;;;;;;;;;5008599;28;20246;-78
2021/12/28 03:53:07;;;;;;;34.20;19.57;;;;;;;;;;5024954;28;20767;-77
2021/12/28 03:55:36;;;;;;;31.03;19.87;;;;;;;;;;5038414;28;20223;-77
2021/12/28 03:58:02;;;;;;;35.37;21.10;;;;;;;;;;5066124;28;20287;-77
2021/12/28 04:00:32;;;;;;;33.43;20.67;;;;;;;;;;5042252;28;20220;-77
2021/12/28 04:03:00;;;;;;;33.47;19.83;;;;;;;;;;5027018;28;20242;-77
2021/12/28 04:05:30;;;;;;;30.63;20.27;;;;;;;;;;5000077;28;20349;-76
2021/12/28 04:08:03;;;;;;;30.97;20.17;;;;;;;;;;5044887;28;20298;-77
2021/12/28 04:10:49;;;;;;;29.43;20.50;;;;;;;;;;5015457;28;20235;-76
2021/12/28 04:13:17;;;;;;;31.67;20.23;;;;;;;;;;5045887;28;20671;-76
2021/12/28 04:15:45;;;;;;;28.13;19.53;;;;;;;;;;5034928;28;20233;-77
2021/12/28 04:18:16;;;;;;;27.97;18.53;;;;;;;;;;5063843;28;20276;-77
2021/12/28 04:20:44;;;;;;;32.13;19.43;;;;;;;;;;5040879;28;20227;-77
2021/12/28 04:23:12;;;;;;;35.07;21.17;;;;;;;;;;5010019;28;20220;-76
2021/12/28 04:25:38;;;;;;;32.50;19.67;;;;;;;;;;5031706;28;20714;-77
2021/12/28 04:28:05;;;;;;;36.47;21.27;;;;;;;;;;5046341;28;20226;-77
2021/12/28 04:30:31;;;;;;;32.23;20.73;;;;;;;;;;5027155;28;20413;-76
2021/12/28 04:32:59;;;;;;;29.30;20.70;;;;;;;;;;5025201;28;20232;-77
2021/12/28 04:35:24;;;;;;;34.87;20.70;;;;;;;;;;5042409;28;20219;-77
2021/12/28 04:37:50;;;;;;;33.63;20.47;;;;;;;;;;5028226;28;20310;-77
2021/12/28 04:40:16;;;;;;;28.50;19.27;;;;;;;;;;5043236;28;20309;-76
2021/12/28 04:42:42;;;;;;;29.53;19.87;;;;;;;;;;5007510;28;20310;-77
2021/12/28 04:45:09;;;;;;;35.93;21.80;;;;;;;;;;5021757;28;20227;-77
2021/12/28 04:47:35;;;;;;;31.60;20.33;;;;;;;;;;5019695;28;20246;-77
2021/12/28 04:50:06;;;;;;;34.50;21.93;;;;;;;;;;5023450;28;20215;-77
2021/12/28 04:52:37;;;;;;;36.00;21.37;;;;;;;;;;5026181;28;20246;-76
2021/12/28 04:55:10;;;;;;;31.10;20.77;;;;;;;;;;5040181;28;20223;-76
2021/12/28 04:57:38;;;;;;;30.27;20.00;;;;;;;;;;5009317;28;20311;-77
2021/12/28 05:00:05;;;;;;;30.37;20.37;;;;;;;;;;5056929;28;20223;-76
2021/12/28 05:02:33;;;;;;;33.80;21.43;;;;;;;;;;5020594;28;20230;-76
2021/12/28 05:05:04;;;;;;;35.00;21.53;;;;;;;;;;5059530;28;20617;-76
2021/12/28 05:07:29;;;;;;;35.00;22.27;;;;;;;;;;5044894;28;20227;-77
2021/12/28 05:09:58;;;;;;;32.53;21.30;;;;;;;;;;5022336;28;20231;-76
2021/12/28 05:12:29;;;;;;;34.90;21.13;;;;;;;;;;5034792;28;20226;-77
2021/12/28 05:14:57;;;;;;;35.63;20.90;;;;;;;;;;5056980;28;20297;-77
2021/12/28 05:17:22;;;;;;;32.93;22.13;;;;;;;;;;5027248;28;20284;-76
2021/12/28 05:19:48;;;;;;;38.00;22.50;;;;;;;;;;5020222;28;20227;-76
2021/12/28 05:22:15;;;;;;;34.43;22.33;;;;;;;;;;5046242;28;20293;-77
2021/12/28 05:24:41;;;;;;;34.87;21.90;;;;;;;;;;5040098;28;20610;-76
2021/12/28 05:27:09;;;;;;;30.37;21.17;;;;;;;;;;5031223;28;20231;-77
2021/12/28 05:29:39;;;;;;;36.80;21.40;;;;;;;;;;5036013;28;20227;-76
2021/12/28 05:32:08;;;;;;;35.70;21.40;;;;;;;;;;5009816;28;20264;-76
2021/12/28 05:34:36;;;;;;;34.13;21.63;;;;;;;;;;5055238;28;20231;-76
2021/12/28 05:37:03;;;;;;;32.20;21.03;;;;;;;;;;5031353;28;20223;-77
2021/12/28 05:39:29;;;;;;;31.63;20.90;;;;;;;;;;5018368;28;20306;-77
2021/12/28 05:41:54;;;;;;;39.00;21.57;;;;;;;;;;5023046;28;20301;-76
2021/12/28 05:44:23;;;;;;;32.10;20.03;;;;;;;;;;5005159;28;20246;-77
2021/12/28 05:46:49;;;;;;;33.70;21.50;;;;;;;;;;5022499;28;20234;-76
2021/12/28 05:49:17;;;;;;;33.00;20.87;;;;;;;;;;5072708;28;20257;-76
2021/12/28 05:51:48;;;;;;;39.17;22.23;;;;;;;;;;5057810;28;20219;-77
2021/12/28 05:54:17;;;;;;;40.47;21.87;;;;;;;;;;5020057;28;20219;-77
2021/12/28 05:56:47;;;;;;;35.20;21.10;;;;;;;;;;4990903;28;20231;-77
2021/12/28 05:59:15;;;;;;;35.77;21.43;;;;;;;;;;5024216;28;20585;-77
2021/12/28 06:01:41;;;;;;;37.33;22.77;;;;;;;;;;5055315;28;20230;-77
2021/12/28 06:04:09;;;;;;;34.53;21.57;;;;;;;;;;5004129;28;20754;-76
2021/12/28 06:06:37;;;;;;;36.53;21.87;;;;;;;;;;5020071;28;20215;-76
2021/12/28 06:09:04;;;;;;;37.30;21.53;;;;;;;;;;5055633;28;20295;-76
2021/12/28 06:11:30;;;;;;;35.23;21.67;;;;;;;;;;5022577;28;20233;-76
2021/12/28 06:13:55;;;;;;;35.70;22.30;;;;;;;;;;5023052;28;20322;-75
2021/12/28 06:16:21;;;;;;;31.93;20.17;;;;;;;;;;5002271;28;20254;-76
2021/12/28 06:18:46;;;;;;;38.83;22.03;;;;;;;;;;5035739;28;20711;-75
2021/12/28 06:21:12;;;;;;;39.10;21.43;;;;;;;;;;5022632;28;20225;-75
2021/12/28 06:23:43;;;;;;;37.30;22.50;;;;;;;;;;5024990;28;20226;-75
2021/12/28 06:26:08;;;;;;;39.00;23.13;;;;;;;;;;5053180;28;20220;-74
2021/12/28 06:28:34;;;;;;;37.40;22.40;;;;;;;;;;5016437;28;20317;-74
2021/12/28 06:31:00;;;;;;;40.03;22.70;;;;;;;;;;5039382;28;20248;-75
2021/12/28 06:33:28;;;;;;;33.07;21.27;;;;;;;;;;5027975;28;20227;-76
2021/12/28 06:35:58;;;;;;;40.17;24.23;;;;;;;;;;5004678;28;20227;-74
2021/12/28 06:38:23;;;;;;;41.33;23.27;;;;;;;;;;5013542;28;20246;-75
2021/12/28 06:40:49;;;;;;;37.23;22.90;;;;;;;;;;5023655;28;20218;-76
2021/12/28 06:43:15;;;;;;;37.57;21.57;;;;;;;;;;5032001;28;20219;-76
2021/12/28 06:45:43;;;;;;;39.47;23.00;;;;;;;;;;5036981;28;20216;-76
2021/12/28 06:48:11;;;;;;;40.77;23.10;;;;;;;;;;5027569;28;20309;-78
2021/12/28 06:50:39;;;;;;;36.53;22.37;;;;;;;;;;5025094;28;20692;-76
2021/12/28 06:53:05;;;;;;;31.53;20.17;;;;;;;;;;5035450;28;20235;-77
2021/12/28 06:55:35;;;;;;;36.63;22.70;;;;;;;;;;5006223;28;20610;-76
2021/12/28 06:58:05;;;;;;;43.30;23.13;;;;;;;;;;5026305;28;20215;-77
2021/12/28 07:00:33;;;;;;;41.00;22.90;;;;;;;;;;5025667;28;20753;-77
2021/12/28 07:02:59;;;;;;;38.23;22.50;;;;;;;;;;5051732;28;20230;-77
2021/12/28 07:05:25;;;;;;;34.87;21.57;;;;;;;;;;5021256;28;20276;-77
2021/12/28 07:07:52;;;;;;;38.83;22.07;;;;;;;;;;5005973;28;20227;-77
2021/12/28 07:10:20;;;;;;;36.17;22.57;;;;;;;;;;5040799;28;20230;-77
2021/12/28 07:12:50;;;;;;;41.57;24.00;;;;;;;;;;5040156;28;20594;-76
2021/12/28 07:15:19;;;;;;;39.53;21.47;;;;;;;;;;5036703;28;20315;-76
2021/12/28 07:17:47;;;;;;;39.60;23.57;;;;;;;;;;5004391;28;20238;-76
2021/12/28 07:20:12;;;;;;;38.70;21.43;;;;;;;;;;5019550;28;20238;-76
2021/12/28 07:22:40;;;;;;;38.00;22.23;;;;;;;;;;5037812;28;20657;-77
2021/12/28 07:25:09;;;;;;;33.10;20.07;;;;;;;;;;5020390;28;20265;-76
2021/12/28 07:27:37;;;;;;;37.83;22.33;;;;;;;;;;5021542;28;20231;-77
2021/12/28 07:30:10;;;;;;;42.50;22.97;;;;;;;;;;5037184;28;20238;-76
2021/12/28 07:32:38;;;;;;;40.40;22.67;;;;;;;;;;5024236;28;20234;-77
2021/12/28 07:35:07;;;;;;;41.40;22.17;;;;;;;;;;5040850;28;20220;-75
2021/12/28 07:37:34;;;;;;;40.13;21.50;;;;;;;;;;5005108;28;20215;-75
2021/12/28 07:40:04;;;;;;;40.90;22.67;;;;;;;;;;5004757;28;20218;-76
2021/12/28 07:42:35;;;;;;;37.47;22.33;;;;;;;;;;5024814;28;20230;-76
2021/12/28 07:45:04;;;;;;;37.63;21.23;;;;;;;;;;5030754;28;20755;-76
2021/12/28 07:47:30;;;;;;;39.37;22.40;;;;;;;;;;5022713;28;20226;-76
2021/12/28 07:49:58;;;;;;;37.57;22.27;;;;;;;;;;5057516;28;20719;-76
2021/12/28 07:52:28;;;;;;;43.10;23.10;;;;;;;;;;5023665;28;20265;-76
2021/12/28 07:54:53;;;;;;;46.20;22.90;;;;;;;;;;5068948;28;20301;-76
2021/12/28 07:57:19;;;;;;;42.67;23.30;;;;;;;;;;5039067;28;20637;-78
2021/12/28 07:59:49;;;;;;;40.67;21.87;;;;;;;;;;5012549;28;20231;-76
2021/12/28 08:02:14;;;;;;;42.73;22.97;;;;;;;;;;5017825;28;20230;-76
2021/12/28 08:04:42;;;;;;;38.47;21.80;;;;;;;;;;5028384;28;20226;-76
2021/12/28 08:07:11;;;;;;;44.63;23.00;;;;;;;;;;5022552;28;20231;-77
2021/12/28 08:09:41;;;;;;;41.77;22.70;;;;;;;;;;5062622;28;20226;-76
2021/12/28 08:12:10;;;;;;;41.20;23.43;;;;;;;;;;5038741;28;20227;-76
2021/12/28 08:14:47;;;;;;;52.47;28.37;;;;;;;;;;5038916;28;20222;-76
2021/12/28 08:17:38;;;;;;;44.03;22.67;;;;;;;;;;5031484;28;20253;-76
2021/12/28 08:20:07;;;;;;;42.23;24.07;;;;;;;;;;5060709;28;20219;-76
2021/12/28 08:22:35;;;;;;;43.20;24.60;;;;;;;;;;5032025;28;20287;-77
2021/12/28 08:25:03;;;;;;;42.40;25.77;;;;;;;;;;5036748;28;20227;-76
2021/12/28 08:27:33;;;;;;;44.87;26.17;;;;;;;;;;5042151;28;20231;-76
2021/12/28 08:29:59;;;;;;;41.43;25.97;;;;;;;;;;5024098;28;20223;-77
2021/12/28 08:32:24;;;;;;;38.53;23.37;;;;;;;;;;5044767;28;20654;-75
2021/12/28 08:34:50;;;;;;;39.27;24.13;;;;;;;;;;5042809;28;20223;-75
2021/12/28 08:37:22;;;;;;;41.97;23.97;;;;;;;;;;5037549;28;20227;-76
2021/12/28 08:39:48;;;;;;;54.17;32.73;;;;;;;;;;5022987;28;20224;-75
2021/12/28 08:42:14;;;;;;;43.23;23.13;;;;;;;;;;5031999;28;20226;-76
2021/12/28 08:44:42;;;;;;;43.93;24.50;;;;;;;;;;5052053;28;20283;-75
2021/12/28 08:47:12;;;;;;;47.13;25.37;;;;;;;;;;5007155;28;20219;-75
2021/12/28 08:49:40;;;;;;;45.87;23.47;;;;;;;;;;5025626;28;20297;-75
2021/12/28 08:52:05;;;;;;;47.73;26.57;;;;;;;;;;5028833;28;20285;-76
2021/12/28 08:54:31;;;;;;;40.13;22.40;;;;;;;;;;5024330;28;20519;-75
2021/12/28 08:56:57;;;;;;;44.40;23.73;;;;;;;;;;5022786;28;20270;-75
2021/12/28 08:59:22;;;;;;;40.23;22.43;;;;;;;;;;5022590;28;20224;-76
2021/12/28 09:01:56;;;;;;;44.07;22.53;;;;;;;;;;5019451;28;21028;-76
2021/12/28 09:04:24;;;;;;;37.83;21.47;;;;;;;;;;5036290;28;20219;-76
2021/12/28 09:06:53;;;;;;;40.87;23.03;;;;;;;;;;5021943;28;20247;-76
2021/12/28 09:09:19;;;;;;;42.37;22.20;;;;;;;;;;5027176;28;20234;-74
2021/12/28 09:11:47;;;;;;;43.30;22.03;;;;;;;;;;5037885;28;20283;-75
2021/12/28 09:14:12;;;;;;;36.13;20.70;;;;;;;;;;5030975;28;20287;-75
2021/12/28 09:16:43;;;;;;;37.83;21.67;;;;;;;;;;5031536;28;20249;-76
2021/12/28 09:19:13;;;;;;;41.00;21.80;;;;;;;;;;5025394;28;20227;-81
2021/12/28 09:22:05;;;;;;;39.97;21.53;;;;;;;;;;5023506;28;20223;-74
2021/12/28 09:24:33;;;;;;;36.47;21.07;;;;;;;;;;5058553;28;20218;-75
2021/12/28 09:27:18;;;;;;;37.37;21.30;;;;;;;;;;5026062;28;20550;-77
2021/12/28 09:29:44;;;;;;;38.97;20.97;;;;;;;;;;5037888;28;20276;-72
2021/12/28 09:32:09;;;;;;;35.47;20.70;;;;;;;;;;5033446;28;20223;-73
2021/12/28 09:34:35;;;;;;;39.37;21.47;;;;;;;;;;5035780;28;20207;-74
2021/12/28 09:37:01;;;;;;;39.27;21.27;;;;;;;;;;5069492;28;20283;-75
2021/12/28 09:39:30;;;;;;;39.47;22.20;;;;;;;;;;5031979;28;20227;-73
2021/12/28 09:42:01;;;;;;;35.27;21.23;;;;;;;;;;5012754;28;20299;-74
2021/12/28 09:44:32;;;;;;;35.23;19.70;;;;;;;;;;5012238;28;20221;-75
2021/12/28 09:46:59;;;;;;;34.73;20.50;;;;;;;;;;5052264;28;20276;-76
2021/12/28 09:49:26;;;;;;;30.37;19.93;;;;;;;;;;5038535;28;20212;-74
2021/12/28 09:51:51;;;;;;;34.70;20.23;;;;;;;;;;5069397;28;20221;-73
2021/12/28 09:54:17;;;;;;;30.87;19.50;;;;;;;;;;5022242;28;20223;-73
2021/12/28 09:56:48;;;;;;;29.60;18.70;;;;;;;;;;5035577;28;20234;-75
2021/12/28 09:59:24;;;;;;;28.87;19.07;;;;;;;;;;5023668;28;20306;-74
2021/12/28 10:01:50;;;;;;;27.13;17.80;;;;;;;;;;5005483;28;20239;-78
2021/12/28 10:04:16;;;;;;;34.23;19.13;;;;;;;;;;5056504;28;20219;-77
2021/12/28 10:06:43;;;;;;;26.57;17.80;;;;;;;;;;5020778;28;20700;-77
2021/12/28 10:09:14;;;;;;;27.03;17.67;;;;;;;;;;5051824;28;20219;-76
2021/12/28 10:11:53;;;;;;;25.33;17.67;;;;;;;;;;5050730;28;20280;-76
2021/12/28 10:14:22;;;;;;;27.10;17.23;;;;;;;;;;5006654;28;20214;-76
2021/12/28 10:16:54;;;;;;;31.40;17.30;;;;;;;;;;5066129;28;20221;-75
2021/12/28 10:19:43;;;;;;;25.07;16.07;;;;;;;;;;5009927;28;21422;-74
2021/12/28 10:22:27;;;;;;;24.50;16.53;;;;;;;;;;5067395;28;20219;-75
2021/12/28 10:24:54;;;;;;;22.53;16.10;;;;;;;;;;5040503;28;20324;-74
2021/12/28 10:27:21;;;;;;;23.27;15.77;;;;;;;;;;5028520;28;20314;-74
2021/12/28 10:29:49;;;;;;;23.47;16.13;;;;;;;;;;5054876;28;20223;-75
2021/12/28 10:32:18;;;;;;;24.43;16.67;;;;;;;;;;5013685;28;20272;-74
2021/12/28 10:34:50;;;;;;;24.10;16.10;;;;;;;;;;5039718;28;20222;-74
2021/12/28 10:37:17;;;;;;;21.20;15.50;;;;;;;;;;5031153;28;20234;-76
2021/12/28 10:39:46;;;;;;;27.03;16.53;;;;;;;;;;5005377;28;20268;-76
2021/12/28 10:42:48;;;;;;;22.60;15.53;;;;;;;;;;4999690;28;20267;-77
2021/12/28 10:45:20;;;;;;;18.83;13.70;;;;;;;;;;5039486;28;20224;-76
2021/12/28 10:47:49;;;;;;;22.50;15.00;;;;;;;;;;5052871;28;20225;-76
2021/12/28 10:50:20;;;;;;;23.30;14.07;;;;;;;;;;5018619;28;20219;-75
2021/12/28 10:53:00;;;;;;;22.03;14.10;;;;;;;;;;5045818;28;20630;-75
2021/12/28 10:55:28;;;;;;;18.13;13.63;;;;;;;;;;5038314;28;20214;-75
2021/12/28 10:57:53;;;;;;;20.53;13.60;;;;;;;;;;5034035;28;20234;-76
2021/12/28 11:00:28;;;;;;;20.80;13.80;;;;;;;;;;5012337;28;20216;-75
2021/12/28 11:03:14;;;;;;;24.27;14.90;;;;;;;;;;5032412;28;20603;-75
2021/12/28 11:05:40;;;;;;;20.83;13.20;;;;;;;;;;5033604;28;20251;-76
2021/12/28 11:08:08;;;;;;;21.67;13.83;;;;;;;;;;5026143;28;20234;-77
2021/12/28 11:10:51;;;;;;;23.63;14.20;;;;;;;;;;5040896;28;20223;-78
2021/12/28 11:13:32;;;;;;;18.93;13.07;;;;;;;;;;5019041;28;20241;-76
2021/12/28 11:16:00;;;;;;;21.60;13.53;;;;;;;;;;5049909;28;20225;-76
2021/12/28 11:18:34;;;;;;;21.03;13.43;;;;;;;;;;5010492;28;20250;-75
2021/12/28 11:21:16;;;;;;;21.30;14.00;;;;;;;;;;5040235;28;20698;-75
2021/12/28 11:23:42;;;;;;;22.03;14.27;;;;;;;;;;5030981;28;20242;-76
2021/12/28 11:26:13;;;;;;;22.33;12.60;;;;;;;;;;5023315;28;20242;-75
2021/12/28 11:28:39;;;;;;;22.07;13.70;;;;;;;;;;5023793;28;20222;-75
2021/12/28 11:31:06;;;;;;;19.20;12.27;;;;;;;;;;5061409;28;20663;-76
2021/12/28 11:33:42;;;;;;;19.03;12.57;;;;;;;;;;5050028;28;20246;-76
2021/12/28 11:36:09;;;;;;;17.00;11.90;;;;;;;;;;5026324;28;20230;-76
2021/12/28 11:38:34;;;;;;;20.00;12.63;;;;;;;;;;5072031;28;20298;-77
2021/12/28 11:41:00;;;;;;;18.83;11.40;;;;;;;;;;5040674;28;20237;-76
2021/12/28 11:43:26;;;;;;;18.77;12.07;;;;;;;;;;5073705;28;20227;-76
2021/12/28 11:45:55;;;;;;;21.67;12.27;;;;;;;;;;5044677;28;20234;-78
2021/12/28 11:48:20;;;;;;;16.33;11.17;;;;;;;;;;5069723;28;20215;-76
2021/12/28 11:50:48;;;;;;;18.30;11.50;;;;;;;;;;5064671;28;20238;-76
2021/12/28 11:53:16;;;;;;;18.07;11.63;;;;;;;;;;5047406;28;20234;-78
2021/12/28 11:55:44;;;;;;;16.63;11.17;;;;;;;;;;5065102;28;20226;-77
2021/12/28 11:58:10;;;;;;;17.97;10.47;;;;;;;;;;5081313;28;20218;-78
2021/12/28 12:00:37;;;;;;;19.80;10.83;;;;;;;;;;5032519;28;20237;-78
2021/12/28 12:03:03;;;;;;;14.80;10.40;;;;;;;;;;5056554;28;20232;-77
2021/12/28 12:05:31;;;;;;;16.97;10.23;;;;;;;;;;5056349;28;20219;-78
2021/12/28 12:08:14;;;;;;;15.37;10.40;;;;;;;;;;5053403;28;20223;-78
2021/12/28 12:10:46;;;;;;;14.50;10.03;;;;;;;;;;5038576;28;20246;-77
2021/12/28 12:13:24;;;;;;;18.47;9.77;;;;;;;;;;5036465;28;20253;-78
2021/12/28 12:15:59;;;;;;;15.13;9.57;;;;;;;;;;5080555;28;20236;-77
2021/12/28 12:18:43;;;;;;;13.47;10.27;;;;;;;;;;5030334;28;20238;-78
2021/12/28 12:21:18;;;;;;;15.77;10.00;;;;;;;;;;5026065;28;20222;-78
2021/12/28 12:23:45;;;;;;;15.43;9.73;;;;;;;;;;5028495;28;20229;-76
2021/12/28 12:26:21;;;;;;;14.20;9.17;;;;;;;;;;5056818;28;20226;-77
2021/12/28 12:28:54;;;;;;;13.03;9.30;;;;;;;;;;5034008;28;20231;-77
2021/12/28 12:31:33;;;;;;;12.70;9.37;;;;;;;;;;5036074;28;20289;-79
2021/12/28 12:34:00;;;;;;;14.10;8.87;;;;;;;;;;5014289;28;20239;-77
2021/12/28 12:36:32;;;;;;;11.97;9.10;;;;;;;;;;5065910;28;20239;-77
2021/12/28 12:39:04;;;;;;;14.83;8.47;;;;;;;;;;5066246;28;20231;-77
2021/12/28 12:41:38;;;;;;;12.70;8.53;;;;;;;;;;5054240;28;20235;-78
2021/12/28 12:44:10;;;;;;;12.70;8.50;;;;;;;;;;5043050;28;20235;-76
2021/12/28 12:46:41;;;;;;;11.87;8.10;;;;;;;;;;5054294;28;20227;-77
2021/12/28 12:49:24;;;;;;;14.30;9.37;;;;;;;;;;5073396;28;20223;-77
2021/12/28 12:51:52;;;;;;;12.90;8.53;;;;;;;;;;5051909;28;20237;-77
2021/12/28 12:54:47;;;;;;;11.37;7.57;;;;;;;;;;5067769;28;20261;-77
2021/12/28 12:57:18;;;;;;;10.80;7.93;;;;;;;;;;5078150;28;20227;-75
2021/12/28 12:59:46;;;;;;;13.27;8.37;;;;;;;;;;5041456;28;20219;-78
2021/12/28 13:02:29;;;;;;;12.53;8.07;;;;;;;;;;5070300;28;20223;-81
2021/12/28 13:07:59;;;;;;;12.40;8.30;;;;;;;;;;5573466;23;20221;-81
2021/12/28 13:10:27;;;;;;;12.87;8.47;;;;;;;;;;4992048;28;20243;-81
2021/12/28 13:12:58;;;;;;;11.80;8.40;;;;;;;;;;4992774;28;20291;-81
2021/12/28 13:15:27;;;;;;;13.13;8.10;;;;;;;;;;5022080;28;20225;-77
2021/12/28 13:17:53;;;;;;;11.87;7.40;;;;;;;;;;4992122;28;20288;-78
2021/12/28 13:20:31;;;;;;;13.17;8.97;;;;;;;;;;4977621;28;20245;-80
2021/12/28 13:23:02;;;;;;;10.63;8.00;;;;;;;;;;4999980;28;20220;-78
2021/12/28 13:25:47;;;;;;;12.63;9.00;;;;;;;;;;4992790;28;20226;-78
2021/12/28 13:28:15;;;;;;;11.53;8.40;;;;;;;;;;4994254;28;20288;-78
2021/12/28 13:30:42;;;;;;;12.43;8.00;;;;;;;;;;4981264;28;20309;-79
2021/12/28 13:33:07;;;;;;;10.60;7.00;;;;;;;;;;4950691;28;20238;-78
2021/12/28 13:35:38;;;;;;;12.00;7.60;;;;;;;;;;4995503;28;20226;-79
2021/12/28 13:38:07;;;;;;;9.70;7.67;;;;;;;;;;4994752;28;20234;-79
2021/12/28 13:40:32;;;;;;;10.30;7.77;;;;;;;;;;5000360;28;20699;-79
2021/12/28 13:42:58;;;;;;;11.87;7.57;;;;;;;;;;4996176;28;20308;-77
2021/12/28 13:45:39;;;;;;;11.43;8.27;;;;;;;;;;4991968;28;20237;-80
2021/12/28 13:48:16;;;;;;;9.97;8.00;;;;;;;;;;4998400;28;20237;-79
2021/12/28 13:50:45;;;;;;;14.33;7.63;;;;;;;;;;4984229;28;20250;-82
2021/12/28 13:53:15;;;;;;;10.43;8.17;;;;;;;;;;4992709;28;20248;-79
2021/12/28 13:55:45;;;;;;;12.80;8.10;;;;;;;;;;5006345;28;20237;-79
2021/12/28 13:58:29;;;;;;;11.33;7.77;;;;;;;;;;5012474;28;20281;-79
2021/12/28 14:01:01;;;;;;;9.43;6.40;;;;;;;;;;4995775;28;20226;-81
2021/12/28 14:03:29;;;;;;;10.87;6.93;;;;;;;;;;4986080;28;20691;-79
2021/12/28 14:06:00;;;;;;;9.73;6.80;;;;;;;;;;4973415;28;20218;-77
2021/12/28 14:08:26;;;;;;;11.67;7.23;;;;;;;;;;4982220;28;20787;-78
2021/12/28 14:10:59;;;;;;;10.03;6.87;;;;;;;;;;4976470;28;20222;-79
2021/12/28 14:13:26;;;;;;;10.57;7.10;;;;;;;;;;4968587;28;20241;-81
2021/12/28 14:15:55;;;;;;;9.57;6.63;;;;;;;;;;4954111;28;20241;-82
2021/12/28 14:18:42;;;;;;;9.00;6.70;;;;;;;;;;4969837;28;20221;-82
2021/12/28 14:21:16;;;;;;;12.13;7.47;;;;;;;;;;5000253;28;20245;-82
2021/12/28 14:23:43;;;;;;;12.20;7.50;;;;;;;;;;4983143;28;20237;-82
2021/12/28 14:26:16;;;;;;;11.77;7.47;;;;;;;;;;4948821;28;20416;-82
2021/12/28 14:28:45;;;;;;;12.83;7.53;;;;;;;;;;5000213;28;20225;-79
2021/12/28 14:31:12;;;;;;;10.37;7.23;;;;;;;;;;4981965;28;20585;-79
2021/12/28 14:33:53;;;;;;;12.40;7.40;;;;;;;;;;4983226;28;20336;-82